createdAt,value
2023-01-23T00:03:02.804Z,0
2023-01-23T00:08:04.606Z,0
2023-01-23T00:13:06.448Z,0
2023-01-23T00:18:08.473Z,0
2023-01-23T00:23:10.220Z,0
2023-01-23T00:28:12.293Z,0
2023-01-23T00:33:14.054Z,0
2023-01-23T00:38:15.847Z,0.88715
2023-01-23T00:43:17.695Z,0
2023-01-23T00:48:19.395Z,0
2023-01-23T00:53:21.083Z,0
2023-01-23T00:58:23.307Z,0
2023-01-23T01:03:24.774Z,0
2023-01-23T01:08:26.541Z,0.88715
2023-01-23T01:13:28.276Z,0
2023-01-23T01:18:29.728Z,0.88715
2023-01-23T01:23:31.248Z,0.88715
2023-01-23T01:28:33.754Z,0.88715
2023-01-23T01:33:35.533Z,0
2023-01-23T01:38:37.269Z,0.88715
2023-01-23T01:43:39.315Z,0.88715
2023-01-23T01:48:41.330Z,0
2023-01-23T01:53:43.246Z,0.88715
2023-01-23T01:58:45.641Z,0.88715
2023-01-23T02:03:47.111Z,0
2023-01-23T02:08:48.825Z,0
2023-01-23T02:13:50.738Z,0
2023-01-23T02:18:52.598Z,0
2023-01-23T02:23:54.284Z,0
2023-01-23T02:28:56.676Z,0.88715
2023-01-23T02:33:58.465Z,0.88715
2023-01-23T02:39:00.351Z,0.88715
2023-01-23T02:44:02.458Z,0
2023-01-23T02:49:04.420Z,0.88715
2023-01-23T02:54:06.346Z,0.88715
2023-01-23T02:59:08.722Z,0.88715
2023-01-23T03:04:10.530Z,0.88715
2023-01-23T03:09:12.255Z,1.16185
2023-01-23T03:14:14.139Z,1.53075
2023-01-23T03:19:16.056Z,2.54805
2023-01-23T03:24:17.705Z,8.4467
2023-01-23T03:29:20.555Z,19.27225
2023-01-23T03:34:22.448Z,33.95225
2023-01-23T03:39:24.259Z,49.9234
2023-01-23T03:44:25.798Z,81.8467
2023-01-23T03:49:27.396Z,114.0096
2023-01-23T03:54:28.983Z,147.1499
2023-01-23T03:59:30.751Z,181.08315
2023-01-23T04:04:32.211Z,208.1746
2023-01-23T04:09:33.902Z,234.4731
2023-01-23T04:14:35.541Z,316.3198
2023-01-23T04:19:37.121Z,292.62075
2023-01-23T04:24:38.960Z,386.0308
2023-01-23T04:29:40.746Z,862.8759
2023-01-23T04:34:42.201Z,353.48
2023-01-23T04:39:43.740Z,371.64555
2023-01-23T04:44:45.488Z,389.2026
2023-01-23T04:49:47.365Z,403.8826
2023-01-23T04:54:48.992Z,426.6404
2023-01-23T04:59:50.822Z,457.29155
2023-01-23T05:04:52.679Z,497.3668
2023-01-23T05:09:54.152Z,543.93395
2023-01-23T05:14:55.766Z,573.4974
2023-01-23T05:19:57.523Z,599.9442
2023-01-23T05:24:58.956Z,619.73365
2023-01-23T05:30:01.065Z,638.1958
2023-01-23T05:35:02.672Z,637.49785
2023-01-23T05:40:04.251Z,658.17525
2023-01-23T05:45:05.962Z,671.9747
2023-01-23T05:50:07.417Z,704.9171
2023-01-23T05:55:08.958Z,716.5773
2023-01-23T06:00:10.620Z,756.6011
2023-01-23T06:05:12.151Z,789.04345
2023-01-23T06:10:13.887Z,818.6829
2023-01-23T06:15:15.608Z,805.11145
2023-01-23T06:20:17.667Z,816.43705
2023-01-23T06:25:19.654Z,816.1993
2023-01-23T06:30:22.825Z,830.31425
2023-01-23T06:35:24.851Z,854.49125
2023-01-23T06:40:26.466Z,874.4016
2023-01-23T06:45:27.955Z,895.61575
2023-01-23T06:50:29.558Z,914.81495
2023-01-23T06:55:30.990Z,932.1773
2023-01-23T07:00:32.801Z,946.10265
2023-01-23T07:05:34.294Z,958.2503
2023-01-23T07:10:35.763Z,981.1235
2023-01-23T07:15:39.078Z,1017.0334
2023-01-23T07:20:42.105Z,1025.38855
2023-01-23T07:25:43.875Z,1035.6992
2023-01-23T07:30:46.190Z,1056.14305
2023-01-23T07:35:47.934Z,1074.63125
2023-01-23T07:40:49.914Z,1090.5121
2023-01-23T07:45:51.935Z,1104.08205
2023-01-23T07:50:54.135Z,1125.2961
2023-01-23T07:55:56.118Z,1143.488
2023-01-23T08:00:58.233Z,1154.1542
2023-01-23T08:06:00.338Z,1172.28685
2023-01-23T08:11:02.441Z,1194.86395
2023-01-23T08:16:04.762Z,1190.1825
2023-01-23T08:21:06.571Z,1217.441
2023-01-23T08:26:08.560Z,1240.96615
2023-01-23T08:31:10.695Z,1259.9285
2023-01-23T08:36:12.577Z,1286.83135
2023-01-23T08:41:14.608Z,1304.964
2023-01-23T08:46:16.610Z,1314.20815
2023-01-23T08:51:18.418Z,1344.1331
2023-01-23T08:56:20.273Z,1361.4955
2023-01-23T09:01:22.615Z,1377.90995
2023-01-23T09:06:24.473Z,1393.6724
2023-01-23T09:11:26.394Z,1417.7311
2023-01-23T09:16:28.218Z,1425.67145
2023-01-23T09:21:30.009Z,1455.5373
2023-01-23T09:26:31.461Z,1472.66275
2023-01-23T09:31:33.261Z,1494.05465
2023-01-23T09:36:42.989Z,1515.68365
2023-01-23T09:41:45.124Z,1531.8016
2023-01-23T09:46:46.909Z,1556.45285
2023-01-23T09:51:49.022Z,1566.11185
2023-01-23T09:56:50.723Z,1585.9038
2023-01-23T10:01:52.742Z,1603.1478
2023-01-23T10:06:54.448Z,1631.47275
2023-01-23T10:11:56.274Z,1652.44995
2023-01-23T10:16:58.108Z,1652.80555
2023-01-23T10:21:59.870Z,1691.2043
2023-01-23T10:27:01.708Z,1688.65635
2023-01-23T10:32:03.747Z,1711.29275
2023-01-23T10:37:05.474Z,1719.11485
2023-01-23T10:42:07.507Z,1742.34385
2023-01-23T10:47:09.346Z,1731.97405
2023-01-23T10:52:11.162Z,1748.1515
2023-01-23T10:57:12.972Z,1738.19635
2023-01-23T11:02:15.319Z,1792.23915
2023-01-23T11:07:17.282Z,1863.82185
2023-01-23T11:12:19.160Z,1840.06005
2023-01-23T11:17:21.066Z,1864.91085
2023-01-23T11:22:23.112Z,1914.5395
2023-01-23T11:27:24.945Z,1948.0487
2023-01-23T11:32:27.073Z,1973.12835
2023-01-23T11:37:28.705Z,1990.1872
2023-01-23T11:42:30.450Z,2019.53005
2023-01-23T11:47:32.106Z,2061.7807
2023-01-23T11:52:33.707Z,2104.3451
2023-01-23T11:57:35.429Z,2124.31715
2023-01-23T12:02:38.466Z,2154.37695
2023-01-23T12:07:40.768Z,2199.3582
2023-01-23T12:12:42.448Z,2239.7092
2023-01-23T12:17:44.192Z,2302.78185
2023-01-23T12:22:45.645Z,2313.6417
2023-01-23T12:27:47.152Z,2306.1344
2023-01-23T12:32:48.830Z,2314.3035
2023-01-23T12:37:50.309Z,2361.64275
2023-01-23T12:42:52.147Z,2435.946
2023-01-23T12:47:54.012Z,2446.45595
2023-01-23T12:52:55.919Z,2452.2995
2023-01-23T12:58:00.157Z,2435.1285
2023-01-23T13:03:11.608Z,2456.5933
2023-01-23T13:08:14.270Z,2468.68915
2023-01-23T13:13:16.152Z,2508.50395
2023-01-23T13:18:18.108Z,2564.7881
2023-01-23T13:23:19.957Z,2530.4651
2023-01-23T13:28:22.232Z,2552.797
2023-01-23T13:33:24.484Z,2520.2805
2023-01-23T13:38:26.471Z,2481.9186
2023-01-23T13:43:28.082Z,2545.5979
2023-01-23T14:31:37.632Z,2478.52485
2023-01-23T14:36:39.596Z,2335.98435
2023-01-23T14:41:43.758Z,2224.51905
2023-01-23T14:46:46.786Z,2292.1821
2023-01-23T14:51:48.756Z,2043.65465
2023-01-23T14:56:50.544Z,2012.89135
2023-01-23T15:01:52.636Z,2152.55295
2023-01-23T15:06:54.636Z,2041.69615
2023-01-23T15:11:57.544Z,1939.26705
2023-01-23T15:16:59.641Z,1828.9446
2023-01-23T15:22:01.482Z,1740.25425
2023-01-23T15:27:03.365Z,1608.66675
2023-01-23T15:32:05.328Z,1508.9474
2023-01-23T15:37:07.243Z,1433.258
2023-01-23T15:42:09.227Z,1279.1523
2023-01-23T15:47:11.035Z,1207.42765
2023-01-23T15:52:13.114Z,1089.19285
2023-01-23T15:57:15.045Z,884.7777
2023-01-23T16:02:29.598Z,739.5066
2023-01-23T16:07:32.516Z,619.7962
2023-01-23T16:12:34.333Z,495.51255
2023-01-23T16:17:36.090Z,386.2778
2023-01-23T16:22:37.953Z,305.42565
2023-01-23T16:27:39.780Z,237.87105
2023-01-23T16:32:41.708Z,198.80935
2023-01-23T16:37:43.931Z,167.56685
2023-01-23T16:42:46.051Z,129.0965
2023-01-23T16:47:47.851Z,95.3287
2023-01-23T16:52:49.755Z,73.23455
2023-01-23T16:57:51.525Z,50.10785
2023-01-23T17:02:53.449Z,32.1819
2023-01-23T17:07:55.041Z,18.4793
2023-01-23T17:12:56.773Z,7.4693
2023-01-23T17:17:58.481Z,2.9036
2023-01-23T17:23:00.287Z,2.50815
2023-01-23T17:28:12.208Z,1.16185
2023-01-23T17:33:14.735Z,0.88715
2023-01-23T17:38:16.450Z,0.88715
2023-01-23T17:43:18.095Z,0.88715
2023-01-23T17:48:19.832Z,0.88715
2023-01-23T17:53:21.705Z,0.88715
2023-01-23T17:58:23.297Z,0
2023-01-23T18:03:25.566Z,0
2023-01-23T18:08:27.397Z,0
2023-01-23T18:13:29.298Z,0
2023-01-23T18:18:30.816Z,0
2023-01-23T18:23:32.333Z,0.88715
2023-01-23T18:28:33.920Z,0
2023-01-23T18:33:35.554Z,0
2023-01-23T18:38:37.067Z,0.88715
2023-01-23T18:43:38.786Z,0
2023-01-23T18:48:40.630Z,0
2023-01-23T18:53:42.380Z,0
2023-01-23T18:58:44.096Z,0
2023-01-23T19:03:45.779Z,0
2023-01-23T19:08:47.345Z,0
2023-01-23T19:13:49.004Z,0
2023-01-23T19:18:50.633Z,0
2023-01-23T19:23:52.315Z,0.88715
2023-01-23T19:28:53.842Z,0
2023-01-23T19:33:56.006Z,0.88715
2023-01-23T19:38:57.479Z,0
2023-01-23T19:43:59.463Z,0
2023-01-23T19:49:02.963Z,0
2023-01-23T19:54:05.432Z,0
2023-01-23T19:59:07.262Z,0
2023-01-23T20:04:09.341Z,0
2023-01-23T20:09:11.308Z,0
2023-01-23T20:14:13.337Z,0.88715
2023-01-23T20:19:15.336Z,0
2023-01-23T20:24:17.306Z,0
2023-01-23T20:29:19.289Z,0.88715
2023-01-23T20:34:21.447Z,0.88715
2023-01-23T20:39:23.365Z,0.88715
2023-01-23T20:44:26.144Z,0
2023-01-23T20:49:28.132Z,0.88715
2023-01-23T20:54:30.084Z,0
2023-01-23T20:59:31.758Z,0
2023-01-23T21:04:33.514Z,0.88715
2023-01-23T21:09:35.201Z,0
2023-01-23T21:14:37.075Z,0
2023-01-23T21:19:38.566Z,0.88715
2023-01-23T21:24:40.257Z,0
2023-01-23T21:29:41.716Z,0
2023-01-23T21:34:43.370Z,0.88715
2023-01-23T21:39:44.861Z,0
2023-01-23T21:44:46.512Z,0
2023-01-23T21:49:48.428Z,0
2023-01-23T21:54:50.036Z,0.88715
2023-01-23T21:59:52.082Z,0
2023-01-23T22:04:54.210Z,0
2023-01-23T22:09:56.043Z,0.88715
2023-01-23T22:14:58.440Z,0
2023-01-23T22:20:00.373Z,0.88715
2023-01-23T22:25:02.442Z,0
2023-01-23T22:30:04.401Z,0.88715
2023-01-23T22:35:06.289Z,0
2023-01-23T22:40:08.088Z,0
2023-01-23T22:45:10.526Z,0.88715
2023-01-23T22:50:12.354Z,0.88715
2023-01-23T22:55:14.276Z,0.88715
2023-01-23T23:00:16.097Z,0.88715
2023-01-23T23:05:18.319Z,0
2023-01-23T23:10:20.152Z,0.88715
2023-01-23T23:15:22.503Z,0
2023-01-23T23:20:24.654Z,0
2023-01-23T23:25:26.596Z,0.88715
2023-01-23T23:30:28.388Z,0.88715
2023-01-23T23:35:30.345Z,0
2023-01-23T23:40:31.842Z,0
2023-01-23T23:45:33.687Z,0.88715
2023-01-23T23:50:35.803Z,0
2023-01-23T23:55:37.234Z,0.88715
